Böenwanderer
| Name | Böenwanderer |
|---|---|
| Muster | Gust Walker |
| Art | Kreatur — mensch, zauberer |
| Beschreibung | Du kannst den Böenwanderer erschöpfen, sowie er angreift. Wenn du dies tust, erhält er +1/+1 und Flugfähigkeit bis zum Ende des Zuges. (Eine erschöpfte Kreatur enttappt nicht während deines nächsten Enttappsegments.) |
| Geschmack | „Ich trage vielleicht keine Waffen, aber ich bin niemals unbewaffnet." |
| Künstler | Jason Rainville |
| Edition | Amonkhet Remastered #22 |
| Tapete | |
| Bild |
Um Böenwanderer
Böenwanderer, Kreatur — mensch, zauberer, entworfen von Jason Rainville Erstveröffentlichung in Mai 2020 bei der Bearbeitung Amonkhet und wurde genau in gedruckt 5 verschiedene Formen. Es wird derzeit zum niedrigsten Preis von verkauft € 0,31.
Gust Walker wäre eine großartige Ergänzung zu einem weißen aggressiven Deck, das frühzeitig Druck mit ausweichenden Bedrohungen ausüben möchte. Während es eine schnelle fliegende Uhr bietet, gibt es stärkere Optionen wie Adanto Vanguard oder Skymarcher Aspirant, die mehr Widerstandsfähigkeit oder Flexibilität bieten. Gust Walker könnte jedoch immer noch in einem Deck gespielt werden, das auf Tempo und Ausweichstrategien ausgerichtet ist, insbesondere in einem Format, in dem seine Fähigkeiten besonders effektiv sind.
Regeln
18/04/2017
Falls du bis zum Ende des Zuges die Kontrolle über die Kreatur eines anderen Spielers übernimmst und sie anstrengst, wird sie während des Enttappsegments jenes Spielers enttappt.
18/04/2017
Du kannst eine Kreatur nicht anstrengen, es sei denn, ein Effekt erlaubt dir dies. Ähnliche Effekte, die eine Kreatur „tappen und einfrieren“ (such as that of Decision Paralysis), strengen jene Kreatur nicht an.
Wo zu kaufen
![]() | Card Kingdom | 47 uni.
| € 0,30 | Shop besuchen |
![]() | Ebay.com | Shop besuchen | ||
![]() | Cardkingdom | Shop besuchen | ||
![]() | Printing proxies | $ 0.75 | Shop besuchen |
*Diese Website enthält Affiliate-Links, für die wir möglicherweise eine Vergütung erhalten
Eine Gruppe
Preisalarm ?
Benachrichtigen Sie mich, wenn der Preis hereinkommt
Geschichte der Preisentwicklung

Preisgeschichte
| Datum | Minimaler Preis | Durchschnittlicher Preis | Decks |
|---|---|---|---|
| 2024-09-06 | 0.01 EUR | 0.14 EUR | 0 |
| 2024-09-09 | 0.01 EUR | 0.14 EUR | 0 |
| 2024-09-16 | 0.01 EUR | 0.14 EUR | 0 |
| 2024-09-23 | 0.01 EUR | 0.14 EUR | 0 |
| 2024-09-30 | 0.01 EUR | 0.14 EUR | 0 |
| 2024-10-07 | 0.01 EUR | 0.14 EUR | 0 |
| 2024-10-14 | 0.01 EUR | 0.14 EUR | 0 |
| 2024-10-21 | 0.01 EUR | 0.14 EUR | 0 |
| 2024-10-28 | 0.01 EUR | 0.14 EUR | 0 |
| 2024-11-06 | 0.01 EUR | 0.14 EUR | 0 |
| 2024-11-11 | 0.01 EUR | 0.14 EUR | 0 |
| 2024-11-18 | 0.01 EUR | 0.14 EUR | 0 |
| 2024-11-25 | 0.01 EUR | 0.14 EUR | 0 |
| 2024-12-02 | 0.01 EUR | 0.15 EUR | 0 |
| 2024-12-09 | 0.01 EUR | 0.15 EUR | 0 |
| 2024-12-19 | 0.01 EUR | 0.15 EUR | 0 |
| 2024-12-23 | 0.01 EUR | 0.15 EUR | 0 |
| 2024-12-30 | 0.01 EUR | 0.15 EUR | 0 |
| 2025-01-01 | 0.01 EUR | 0.15 EUR | 0 |
| 2025-01-06 | 0.01 EUR | 0.15 EUR | 0 |
| 2025-01-13 | 0.01 EUR | 0.15 EUR | 0 |
| 2025-01-20 | 0.01 EUR | 0.15 EUR | 0 |
| 2025-01-27 | 0.01 EUR | 0.15 EUR | 0 |
| 2025-02-03 | 0.01 EUR | 0.15 EUR | 0 |
| 2025-02-10 | 0.01 EUR | 0.15 EUR | 0 |
| 2025-02-18 | 0.01 EUR | 0.17 EUR | 0 |
| 2025-04-27 | 0.01 EUR | 0.17 EUR | 0 |
| 2025-04-28 | 0.01 EUR | 0.17 EUR | 0 |
| 2025-05-06 | 0.01 EUR | 0.17 EUR | 0 |
| 2025-05-12 | 0.01 EUR | 0.17 EUR | 0 |
| 2025-05-19 | 0.01 EUR | 0.23 EUR | 0 |
| 2025-05-28 | 0.01 EUR | 0.23 EUR | 0 |
| 2025-06-03 | 0.01 EUR | 0.18 EUR | 0 |
| 2025-06-10 | 0.01 EUR | 0.17 EUR | 0 |
| 2025-06-17 | 0.01 EUR | 0.21 EUR | 0 |
| 2025-06-23 | 0.01 EUR | 0.22 EUR | 0 |
| 2025-07-01 | 0.01 EUR | 0.22 EUR | 0 |
| 2025-07-08 | 0.01 EUR | 0.20 EUR | 0 |
| 2025-07-15 | 0.01 EUR | 0.17 EUR | 0 |
| 2025-07-22 | 0.01 EUR | 0.17 EUR | 0 |
| 2025-07-29 | 0.01 EUR | 0.20 EUR | 0 |
| 2025-08-05 | 0.01 EUR | 0.22 EUR | 0 |
| 2025-08-12 | 0.01 EUR | 0.17 EUR | 0 |
| 2025-08-18 | 0.02 EUR | 0.19 EUR | 0 |
| 2025-08-25 | 0.03 EUR | 0.22 EUR | 0 |
| 2025-09-02 | 0.03 EUR | 0.22 EUR | 0 |
| 2025-09-09 | 0.03 EUR | 0.22 EUR | 0 |
| 2025-09-15 | 0.03 EUR | 0.22 EUR | 0 |
| 2025-09-23 | 0.27 EUR | 0.30 EUR | 0 |
| 2025-09-29 | 0.31 EUR | 0.31 EUR | 0 |
| 2025-10-06 | 0.32 EUR | 0.32 EUR | 0 |
| 2025-10-13 | 0.32 EUR | 0.32 EUR | 0 |
| 2025-10-20 | 0.32 EUR | 0.32 EUR | 0 |
| 2025-10-27 | 0.32 EUR | 0.32 EUR | 0 |
| 2025-11-03 | 0.32 EUR | 0.32 EUR | 0 |
| 2025-11-10 | 0.31 EUR | 0.31 EUR | 0 |
| 2025-11-18 | 0.31 EUR | 0.31 EUR | 0 |
| 2025-11-24 | 0.32 EUR | 0.32 EUR | 0 |
| 2025-12-03 | 0.31 EUR | 0.31 EUR | 0 |
| 2025-12-08 | 0.32 EUR | 0.32 EUR | 0 |
| 2025-12-15 | 0.32 EUR | 0.32 EUR | 0 |
| 2025-12-22 | 0.33 EUR | 0.33 EUR | 0 |
| 2025-12-29 | 0.33 EUR | 0.33 EUR | 0 |
| 2026-01-01 | 0.32 EUR | 0.32 EUR | 0 |
| 2026-01-05 | 0.32 EUR | 0.32 EUR | 0 |
| 2026-01-13 | 0.32 EUR | 0.32 EUR | 0 |
| 2026-01-20 | 0.32 EUR | 0.32 EUR | 0 |
| 2026-01-26 | 0.31 EUR | 0.31 EUR | 0 |
| 2026-02-02 | 0.31 EUR | 0.31 EUR | 0 |
| 2026-02-09 | 0.31 EUR | 0.31 EUR | 0 |
| 2026-02-16 | 0.31 EUR | 0.31 EUR | 0 |
| 2026-02-23 | 0.31 EUR | 0.31 EUR | 0 |
| 2026-03-02 | 0.31 EUR | 0.31 EUR | 0 |
| 2026-03-10 | 0.31 EUR | 0.31 EUR | 0 |
| 2026-03-16 | 0.31 EUR | 0.31 EUR | 0 |
| 2026-04-02 | 0.31 EUR | 0.31 EUR | 0 |
| 2026-04-07 | 0.30 EUR | 0.30 EUR | 0 |
| 2026-04-14 | 0.30 EUR | 0.30 EUR | 0 |
| 2026-04-23 | 0.29 EUR | 0.29 EUR | 0 |
| 2026-04-30 | 0.29 EUR | 0.29 EUR | 0 |
| 2026-05-05 | 0.29 EUR | 0.29 EUR | 0 |
| 2026-05-14 | 0.29 EUR | 0.29 EUR | 0 |
| 2026-05-20 | 0.30 EUR | 0.30 EUR | 0 |
| 2026-05-25 | 0.30 EUR | 0.30 EUR | 0 |
| 2026-06-01 | 0.30 EUR | 0.30 EUR | 0 |
| 2026-06-08 | 0.30 EUR | 0.30 EUR | 0 |
| 2026-06-15 | 0.30 EUR | 0.30 EUR | 0 |
| 2026-06-23 | 0.30 EUR | 0.30 EUR | 0 |
| 2026-06-29 | 0.31 EUR | 0.31 EUR | 0 |
| 2026-07-06 | 0.30 EUR | 0.30 EUR | 0 |
| 2026-07-13 | 0.30 EUR | 0.30 EUR | 0 |
| 2026-07-20 | 0.30 EUR | 0.30 EUR | 0 |
| 2026-07-27 | 0.30 EUR | 0.30 EUR | 0 |
| 2026-08-03 | 0.30 EUR | 0.30 EUR | 0 |
| 2026-08-10 | 0.30 EUR | 0.30 EUR | 0 |
| 2026-08-17 | 0.31 EUR | 0.31 EUR | 0 |
| 2026-08-24 | 0.30 EUR | 0.30 EUR | 0 |
| 2026-09-01 | 0.30 EUR | 0.30 EUR | 0 |
Häufig gestellte Fragen zu Böenwanderer
Welcher Kartentyp ist Böenwanderer?
Böenwanderer ist Kreatur — mensch, zauberer Karte hinein Magic: the Gathering MTG.
Welchen Effekt hat Böenwanderer?
Du kannst den Böenwanderer erschöpfen, sowie er angreift. Wenn du dies tust, erhält er +1/+1 und Flugfähigkeit bis zum Ende des Zuges. (Eine erschöpfte Kreatur enttappt nicht während deines nächsten Enttappsegments.)
Was kostet Böenwanderer?
Böenwanderer beginnt derzeit um € 0,31. Sehen Sie sich die Live-Preise mehrerer Verkäufer oben im Abschnitt „Wo kaufen“ an.
Aus welchem Set stammt Böenwanderer?
Böenwanderer wurde erstmals im Set veröffentlicht Amonkhet, illustriert von Jason Rainville.
Wie ist die Legalität von Böenwanderer?
Die Legalität hängt vom Turnierformat ab – Böenwanderer kann in einigen Formaten legal und in anderen verboten oder eingeschränkt sein. Die vollständige Aufschlüsselung nach Format finden Sie oben im Abschnitt „Rechtmäßigkeit“.
Welche Karten ähneln Böenwanderer?
Buchstaben ähnlich Böenwanderer enthalten Schirmraufbold, Wachsamer Naga, Elite der Tah-Saat. Die vollständige Liste finden Sie oben im Abschnitt „Ähnliche Karten“.





Reaktionen
0
0 Kommentare
Sei der erste der kommentiert